Arcadia, Oregon
Current Conditions -  °F | °C
As of 7:04 PM on Thursday 20 Nov 2014 (Local Time) from KONO Reporting Station
Haze Haze  
Wind Chill: 22°   Ceiling: 12000
Heat Index: 22°   Visibility: 3mi
Dew Point: 18°   Wind: 0mph
Humidity: 85%   Direction: NA
Pressure: 30.14"   Gusts: NA
Location:  43.754°N, 117.202°W
Report Text: KONO 210204Z AUTO 00000KT 3SM BR BKN120 M06/M08 A3014 RMK AO2 T10561078
Loading
Personal Weather Stations






























Interactive Weather Map New forecast layout! Learn more

10-Day Weather Forecast

Advertisements
Track Severe Weather on mobile